Airfield :







YOU CAN JOIN US ON...

 
LOGIN :

Register | Disclaimer

   EN    FR    IT 

 









Legend :    VFR   Marginal VFR   IFR   Intensive IFR   Very Intensive IFR
Visi :
Ceiling :
>= 8 km
>= 3000ft
5 to 8 km
1000 to 3000 ft
1500m to 5 km
500 to 1000 ft
800 to 1500m
200 to 500 ft
< 800m
< 200 ft
Symbols :   Thunderstorms  Fog  Heavy snow  Heavy precipitations  Wind > 20 kt






- Airport Elevation : 603 ft
- IATA code : LEB


KLEB - Lebanon Municipal

CURRENT METAR :
  • 271114Z 00000KT 10SM SCT001 07/06 A2976 RMK AO2 T00720056

EXPIRED METARs :
  • 271053Z 14003KT 10SM BKN001 07/06 A2976 RMK AO2 SLP075 T00670056
  • 271039Z 00000KT 3SM BR BKN001 07/06 A2975 RMK AO2 T00670056 $
  • 271024Z 17003KT 1SM BR VV001 07/06 A2976 RMK AO2 T00720061 $
  • 271006Z 00000KT 3/4SM BR VV001 08/07 A2975 RMK AO2 T00780067 $
  • 270953Z AUTO 00000KT 1/4SM FG VV001 08/07 A2974 RMK AO2 SLP070 T00780067 $
  • 270912Z AUTO 00000KT 1/4SM FG VV001 08/07 A2973 RMK AO2 T00830072 $
  • 270853Z AUTO 00000KT 1/2SM FG VV001 07/06 A2973 RMK AO2 SLP065 T00670056 56003 $

TAF KLEB
Valid from the 27 at 09:00 until the 28 at 06:00 UTC


270909Z 2709/2806 00000KT 1/4SM FG VV001
FM271300 00000KT 2SM BR FEW002 SCT100
FM271400 21006KT P6SM OVC050
FM272300 18002KT P6SM BKN050
KZBW FIR / North America



MET'MAP, your aeronautical weather chart ! - Copyright ORBIFLY December 2007 - Disclaimer

ORBIFLY MET'MAP TEAM :

Programming & Development : Alexandra Zaïnal
Original concept : Baudouin d'Aumeries
Technical & hardware support : Manuel Goepfert
Assistance : Marc-Olivier Méhu




SOURCES & CREDITS :

   NOAA